createdAt,value
2018-12-13T00:01:55.941Z,88.90
2018-12-13T00:04:36.195Z,88.90
2018-12-13T00:07:16.353Z,89.00
2018-12-13T00:09:55.435Z,88.90
2018-12-13T00:12:35.336Z,88.90
2018-12-13T00:15:15.935Z,88.70
2018-12-13T00:17:54.736Z,88.70
2018-12-13T00:20:33.944Z,88.70
2018-12-13T00:23:12.866Z,89.20
2018-12-13T00:25:52.107Z,88.60
2018-12-13T00:28:31.188Z,88.60
2018-12-13T01:38:03.393Z,89.40
2018-12-13T01:40:42.286Z,90.00
2018-12-13T01:43:23.336Z,90.10
2018-12-13T01:46:02.352Z,89.90
2018-12-13T01:48:41.600Z,89.80
2018-12-13T01:51:20.611Z,89.20
2018-12-13T01:53:59.751Z,89.50
2018-12-13T01:56:38.644Z,89.50
2018-12-13T01:59:17.801Z,89.30
2018-12-13T02:01:57.093Z,89.20
2018-12-13T02:04:36.647Z,89.20
2018-12-13T02:07:15.698Z,89.10
2018-12-13T02:09:55.051Z,89.10
2018-12-13T02:12:33.846Z,89.00
2018-12-13T02:15:13.065Z,89.00
2018-12-13T02:17:54.262Z,88.90
2018-12-13T02:20:33.367Z,88.80
2018-12-13T02:23:12.329Z,88.90
2018-12-13T02:25:51.800Z,88.30
2018-12-13T02:28:30.739Z,89.00
2018-12-13T02:31:10.229Z,88.90
2018-12-13T02:33:49.157Z,88.90
2018-12-13T02:36:31.451Z,88.90
2018-12-13T02:39:12.579Z,89.00
2018-12-13T02:41:53.385Z,88.90
2018-12-13T02:44:32.383Z,89.00
2018-12-13T02:47:11.829Z,89.10
2018-12-13T02:49:50.858Z,88.90
2018-12-13T02:52:30.515Z,88.90
2018-12-13T02:55:13.456Z,88.90
2018-12-13T03:05:34.526Z,88.20
2018-12-13T03:08:13.751Z,89.20
2018-12-13T03:10:53.091Z,89.20
2018-12-13T03:13:32.044Z,89.20
2018-12-13T03:16:11.499Z,89.10
2018-12-13T03:18:50.443Z,89.00
2018-12-13T03:21:29.498Z,89.00
2018-12-13T03:24:08.346Z,89.00
2018-12-13T03:26:48.324Z,88.80
2018-12-13T03:29:26.937Z,88.70
2018-12-13T03:32:06.806Z,88.80
2018-12-13T03:34:49.110Z,88.80
2018-12-13T03:37:28.995Z,88.70
2018-12-13T03:40:07.476Z,88.80
2018-12-13T03:42:47.406Z,88.80
2018-12-13T03:45:31.274Z,88.70
2018-12-13T03:48:10.059Z,89.50
2018-12-13T03:50:49.681Z,88.80
2018-12-13T03:53:29.508Z,88.80
2018-12-13T03:56:08.020Z,88.80
2018-12-13T03:58:47.875Z,88.90
2018-12-13T04:01:26.370Z,88.80
2018-12-13T04:04:05.585Z,88.90
2018-12-13T04:06:44.226Z,88.90
2018-12-13T04:09:24.741Z,88.80
2018-12-13T04:12:03.456Z,88.90
2018-12-13T04:14:42.238Z,88.90
2018-12-13T04:17:20.869Z,88.80
2018-12-13T04:19:59.705Z,88.90
2018-12-13T04:22:38.421Z,89.60
2018-12-13T04:25:17.138Z,90.00
2018-12-13T04:27:55.779Z,90.20
2018-12-13T04:30:35.222Z,90.20
2018-12-13T04:33:13.907Z,90.20
2018-12-13T04:35:54.798Z,90.20
2018-12-13T04:38:33.523Z,90.20
2018-12-13T04:41:13.447Z,90.20
2018-12-13T04:43:52.011Z,90.10
2018-12-13T04:46:33.764Z,90.10
2018-12-13T04:49:12.182Z,90.00
2018-12-13T04:51:52.950Z,90.10
2018-12-13T04:54:32.855Z,90.00
2018-12-13T04:57:13.106Z,90.00
2018-12-13T04:59:51.834Z,90.00
2018-12-13T05:02:30.557Z,90.00
2018-12-13T05:05:09.297Z,90.00
2018-12-13T05:10:38.639Z,90.00
2018-12-13T05:16:14.634Z,90.00
2018-12-13T05:18:53.065Z,90.00
2018-12-13T05:21:37.383Z,89.80
2018-12-13T05:24:19.814Z,89.80
2018-12-13T05:30:03.635Z,89.80
2018-12-13T05:32:50.431Z,89.80
2018-12-13T05:35:34.598Z,89.80
2018-12-13T05:53:09.441Z,90.00
2018-12-13T05:55:56.115Z,90.00
2018-12-13T05:58:40.094Z,89.90
2018-12-13T06:01:25.137Z,89.80
2018-12-13T06:07:00.456Z,89.80
2018-12-13T06:12:24.512Z,89.80
2018-12-13T06:17:58.132Z,89.90
2018-12-13T06:20:39.582Z,89.80
2018-12-13T06:23:28.168Z,89.80
2018-12-13T06:28:55.654Z,89.90
2018-12-13T06:34:23.361Z,89.90
2018-12-13T06:37:08.741Z,89.80
2018-12-13T06:39:52.028Z,89.90
2018-12-13T06:45:33.178Z,89.90
2018-12-13T06:48:18.063Z,89.90
2018-12-13T06:51:02.395Z,89.90
2018-12-13T06:53:42.928Z,89.90
2018-12-13T06:56:26.363Z,90.00
2018-12-13T06:59:05.841Z,89.90
2018-12-13T07:01:51.556Z,89.90
2018-12-13T07:07:21.587Z,89.90
2018-12-13T07:10:06.280Z,90.00
2018-12-13T07:12:50.818Z,89.90
2018-12-13T07:15:34.382Z,89.90
2018-12-13T07:18:20.523Z,89.90
2018-12-13T07:21:04.022Z,90.00
2018-12-13T07:32:08.463Z,89.90
2018-12-13T07:35:01.140Z,89.90
2018-12-13T07:37:41.732Z,90.00
2018-12-13T07:40:26.286Z,90.00
2018-12-13T07:43:06.967Z,90.00
2018-12-13T07:45:50.406Z,90.00
2018-12-13T07:48:32.024Z,90.00
2018-12-13T07:51:17.086Z,90.00
2018-12-13T07:54:04.625Z,90.00
2018-12-13T07:56:47.579Z,90.40
2018-12-13T07:59:34.695Z,90.00
2018-12-13T08:05:04.778Z,90.00
2018-12-13T08:07:51.148Z,90.00
2018-12-13T08:10:36.669Z,90.00
2018-12-13T08:13:20.978Z,90.00
2018-12-13T08:32:41.745Z,90.00
2018-12-13T08:35:31.784Z,90.00
2018-12-13T08:38:17.978Z,90.20
2018-12-13T08:40:59.103Z,90.00
2018-12-13T08:49:26.549Z,90.00
2018-12-13T08:52:19.458Z,90.00
2018-12-13T08:55:07.522Z,90.40
2018-12-13T09:00:38.907Z,90.00
2018-12-13T09:03:20.266Z,90.00
2018-12-13T09:06:04.107Z,90.00
2018-12-13T09:11:35.288Z,90.40
2018-12-13T09:15:19.768Z,90.00
2018-12-13T09:18:09.610Z,90.00
2018-12-13T09:23:44.636Z,90.00
2018-12-13T09:29:19.962Z,90.10
2018-12-13T09:35:10.801Z,90.00
2018-12-13T09:43:43.601Z,90.00
2018-12-13T09:46:29.280Z,90.00
2018-12-13T09:49:14.673Z,90.00
2018-12-13T09:51:54.548Z,90.00
2018-12-13T09:54:35.903Z,90.00
2018-12-13T09:57:18.766Z,89.90
2018-12-13T10:00:01.803Z,90.00
2018-12-13T10:05:38.062Z,89.90
2018-12-13T10:08:26.032Z,89.90
2018-12-13T10:11:10.649Z,89.90
2018-12-13T10:16:44.381Z,90.00
2018-12-13T10:22:15.767Z,89.90
2018-12-13T10:25:00.909Z,89.80
2018-12-13T10:33:29.725Z,89.90
2018-12-13T10:39:03.973Z,89.80
2018-12-13T10:41:52.498Z,90.30
2018-12-13T10:47:31.095Z,89.90
2018-12-13T10:50:20.169Z,90.00
2018-12-13T10:53:02.026Z,90.00
2018-12-13T10:55:44.228Z,90.20
2018-12-13T11:01:14.797Z,90.00
2018-12-13T11:17:02.897Z,90.10
2018-12-13T11:22:38.370Z,90.20
2018-12-13T11:28:17.135Z,90.20
2018-12-13T11:33:51.716Z,90.10
2018-12-13T11:36:37.864Z,90.10
2018-12-13T11:42:11.406Z,90.10
2018-12-13T11:44:59.316Z,90.10
2018-12-13T11:50:22.186Z,90.50
2018-12-13T11:53:12.034Z,90.20
2018-12-13T13:24:23.377Z,91.00
2018-12-13T13:29:52.104Z,90.70
2018-12-13T13:32:35.838Z,91.00
2018-12-13T13:54:43.121Z,91.00
2018-12-13T13:57:24.112Z,91.20
2018-12-13T14:00:06.355Z,91.10
2018-12-13T14:02:55.996Z,91.00
2018-12-13T14:05:41.244Z,91.00
2018-12-13T14:08:27.874Z,90.90
2018-12-13T14:11:13.461Z,90.90
2018-12-13T14:13:55.761Z,90.80
2018-12-13T14:29:56.042Z,91.10
2018-12-13T14:38:05.543Z,90.90
2018-12-13T14:40:51.885Z,91.00
2018-12-13T14:43:38.627Z,91.00
2018-12-13T14:46:19.045Z,90.80
2018-12-13T14:48:58.805Z,90.80
2018-12-13T14:54:33.779Z,90.80
2018-12-13T15:05:26.273Z,90.70
2018-12-13T15:10:49.123Z,90.80
2018-12-13T15:13:29.889Z,90.80
2018-12-13T15:16:09.509Z,90.80
2018-12-13T15:18:55.691Z,90.90
2018-12-13T15:24:26.109Z,90.90
2018-12-13T15:27:10.511Z,90.90
2018-12-13T15:29:50.421Z,91.00
2018-12-13T15:32:34.102Z,91.00
2018-12-13T15:35:18.179Z,91.00
2018-12-13T15:37:57.958Z,91.00
2018-12-13T15:54:32.363Z,91.00
2018-12-13T16:00:03.190Z,91.10
2018-12-13T16:02:43.663Z,91.10
2018-12-13T16:05:24.649Z,91.10
2018-12-13T16:08:09.569Z,91.10
2018-12-13T16:10:54.044Z,91.10
2018-12-13T16:13:39.535Z,91.10
2018-12-13T16:19:07.117Z,91.10
2018-12-13T16:21:51.083Z,91.00
2018-12-13T16:24:37.360Z,91.40
2018-12-13T16:30:06.070Z,91.10
2018-12-13T16:35:35.583Z,91.10
2018-12-13T16:50:10.484Z,90.90
2018-12-13T16:52:54.116Z,91.30
2018-12-13T16:55:38.917Z,91.40
2018-12-13T16:58:19.678Z,91.40
2018-12-13T17:01:00.118Z,91.40
2018-12-13T17:03:49.629Z,91.30
2018-12-13T17:06:34.089Z,91.20
2018-12-13T17:09:18.364Z,91.20
2018-12-13T17:14:46.632Z,91.20
2018-12-13T17:17:34.495Z,91.20
2018-12-13T17:20:18.508Z,91.20
2018-12-13T17:23:06.448Z,91.10
2018-12-13T17:28:38.712Z,91.10
2018-12-13T17:31:21.717Z,91.10
2018-12-13T17:34:06.365Z,91.50
2018-12-13T17:36:47.131Z,91.10
2018-12-13T17:42:15.935Z,91.10
2018-12-13T17:44:55.986Z,91.10
2018-12-13T17:47:36.680Z,91.50
2018-12-13T17:50:21.136Z,91.10
2018-12-13T17:53:02.018Z,91.10
2018-12-13T17:55:49.880Z,91.10
2018-12-13T17:58:29.546Z,91.10
2018-12-13T18:01:14.920Z,91.10
2018-12-13T18:03:56.983Z,91.00
2018-12-13T18:06:48.116Z,91.10
2018-12-13T18:09:32.312Z,91.00
2018-12-13T18:12:20.305Z,91.10
2018-12-13T18:20:45.073Z,91.00
2018-12-13T18:26:17.805Z,91.00
2018-12-13T18:28:58.994Z,91.00
2018-12-13T18:31:46.757Z,91.00
2018-12-13T18:34:31.561Z,91.00
2018-12-13T18:37:12.617Z,91.00
2018-12-13T18:42:41.849Z,91.00
2018-12-13T18:45:27.621Z,91.00
2018-12-13T18:51:02.931Z,90.90
2018-12-13T18:53:50.496Z,90.90
2018-12-13T18:59:23.808Z,90.80
2018-12-13T19:02:01.495Z,90.90
2018-12-13T19:07:27.644Z,90.80
2018-12-13T19:10:09.683Z,90.80
2018-12-13T19:12:51.496Z,90.80
2018-12-13T19:18:24.432Z,90.80
2018-12-13T19:21:10.808Z,90.70
2018-12-13T19:23:52.954Z,90.70
2018-12-13T19:26:33.656Z,90.70
2018-12-13T19:29:17.046Z,90.70
2018-12-13T19:37:34.367Z,90.70
2018-12-13T19:40:16.145Z,90.70
2018-12-13T19:48:35.588Z,90.70
2018-12-13T19:51:20.770Z,90.70
2018-12-13T19:56:45.568Z,90.50
2018-12-13T19:59:28.619Z,90.50
2018-12-13T20:02:09.247Z,90.50
2018-12-13T20:04:50.854Z,90.50
2018-12-13T20:10:22.067Z,90.60
2018-12-13T20:13:07.557Z,90.50
2018-12-13T20:15:52.078Z,90.50
2018-12-13T20:21:15.400Z,90.60
2018-12-13T20:23:57.136Z,90.60
2018-12-13T20:29:27.927Z,90.70
2018-12-13T20:32:16.479Z,90.60
2018-12-13T20:37:46.429Z,90.60
2018-12-13T20:45:56.403Z,90.70
2018-12-13T20:48:40.799Z,90.70
2018-12-13T20:51:25.425Z,90.70
2018-12-13T20:54:11.305Z,90.70
2018-12-13T20:56:58.202Z,90.60
2018-12-13T21:02:32.893Z,90.70
2018-12-13T21:10:54.392Z,90.70
2018-12-13T21:13:41.195Z,90.70
2018-12-13T21:19:10.350Z,90.70
2018-12-13T21:21:53.318Z,90.70
2018-12-13T21:30:06.116Z,90.70
2018-12-13T21:32:46.132Z,90.70
2018-12-13T21:35:27.947Z,90.70
2018-12-13T21:38:09.427Z,90.60
2018-12-13T21:40:54.223Z,90.60
2018-12-13T21:43:40.310Z,90.60
2018-12-13T21:46:19.985Z,90.60
2018-12-13T21:49:05.304Z,90.50
2018-12-13T21:54:36.269Z,90.60
2018-12-13T21:57:19.733Z,90.50
2018-12-13T22:05:40.437Z,90.90
2018-12-13T22:08:22.290Z,90.50
2018-12-13T22:13:52.931Z,90.50
2018-12-13T22:16:36.361Z,90.50
2018-12-13T22:19:15.910Z,90.40
2018-12-13T22:27:35.213Z,90.40
2018-12-13T22:30:18.650Z,90.50
2018-12-13T22:33:00.013Z,90.50
2018-12-13T22:35:42.903Z,90.50
2018-12-13T22:38:29.110Z,90.50
2018-12-13T22:41:15.346Z,90.50
2018-12-13T22:46:46.838Z,90.60
2018-12-13T22:49:23.444Z,90.50
2018-12-13T22:52:04.492Z,90.50
2018-12-13T22:54:49.287Z,90.50
2018-12-13T22:57:30.483Z,90.50
2018-12-13T23:02:56.976Z,90.50
2018-12-13T23:05:43.887Z,90.50
2018-12-13T23:08:25.427Z,90.50
2018-12-13T23:11:06.590Z,90.50
2018-12-13T23:13:56.176Z,90.50
2018-12-13T23:22:10.182Z,90.40
2018-12-13T23:30:27.935Z,90.20
2018-12-13T23:33:14.045Z,90.20
2018-12-13T23:35:55.437Z,90.20
2018-12-13T23:38:42.117Z,90.10
2018-12-13T23:41:23.236Z,90.10
2018-12-13T23:44:07.639Z,90.10
2018-12-13T23:46:50.174Z,90.10
2018-12-13T23:49:31.915Z,90.10
2018-12-13T23:52:16.545Z,90.10
2018-12-13T23:54:57.742Z,90.10
2018-12-13T23:57:38.869Z,90.10
